createdAt,value
2019-03-30T00:01:01.237Z,13.27
2019-03-30T00:02:08.026Z,13.27
2019-03-30T00:03:12.274Z,13.29
2019-03-30T00:04:16.449Z,13.24
2019-03-30T00:05:20.630Z,13.21
2019-03-30T00:06:25.211Z,13.20
2019-03-30T00:07:29.454Z,13.19
2019-03-30T00:08:33.704Z,13.16
2019-03-30T00:09:37.886Z,13.16
2019-03-30T00:10:42.062Z,13.18
2019-03-30T00:11:46.354Z,13.18
2019-03-30T00:12:50.540Z,13.16
2019-03-30T00:13:54.746Z,13.08
2019-03-30T00:14:58.993Z,13.03
2019-03-30T00:16:03.271Z,12.90
2019-03-30T00:17:07.475Z,12.89
2019-03-30T00:18:11.660Z,12.82
2019-03-30T00:19:15.874Z,12.80
2019-03-30T00:20:20.047Z,12.81
2019-03-30T00:21:24.226Z,12.83
2019-03-30T00:22:28.403Z,12.84
2019-03-30T00:23:32.651Z,12.85
2019-03-30T00:24:37.814Z,12.85
2019-03-30T00:25:42.021Z,12.85
2019-03-30T00:26:46.225Z,12.84
2019-03-30T00:27:50.404Z,12.82
2019-03-30T00:28:54.602Z,12.76
2019-03-30T00:29:58.850Z,12.75
2019-03-30T00:31:03.099Z,12.75
2019-03-30T00:32:07.539Z,12.74
2019-03-30T00:33:12.935Z,12.74
2019-03-30T00:34:17.115Z,12.72
2019-03-30T00:35:21.297Z,12.73
2019-03-30T00:36:25.509Z,12.75
2019-03-30T00:37:29.755Z,12.76
2019-03-30T00:38:33.935Z,12.75
2019-03-30T00:39:39.254Z,12.76
2019-03-30T00:40:43.444Z,12.76
2019-03-30T00:41:47.727Z,12.73
2019-03-30T00:42:52.846Z,12.76
2019-03-30T00:43:57.068Z,12.74
2019-03-30T00:45:01.245Z,12.72
2019-03-30T00:46:05.495Z,12.73
2019-03-30T00:47:09.750Z,12.73
2019-03-30T00:48:13.931Z,12.65
2019-03-30T00:49:18.122Z,12.64
2019-03-30T00:50:22.370Z,12.63
2019-03-30T00:51:26.550Z,12.62
2019-03-30T00:52:30.757Z,12.63
2019-03-30T00:53:34.934Z,12.64
2019-03-30T00:54:39.259Z,12.61
2019-03-30T00:55:44.534Z,12.49
2019-03-30T00:56:48.709Z,12.39
2019-03-30T00:57:53.147Z,12.26
2019-03-30T00:58:57.689Z,12.20
2019-03-30T01:00:01.871Z,12.20
2019-03-30T01:01:06.119Z,12.22
2019-03-30T01:02:10.363Z,12.21
2019-03-30T01:03:14.615Z,12.18
2019-03-30T01:04:18.966Z,12.16
2019-03-30T01:05:23.153Z,12.18
2019-03-30T01:06:27.339Z,12.20
2019-03-30T01:07:31.518Z,12.22
2019-03-30T01:08:35.772Z,12.22
2019-03-30T01:09:40.001Z,12.21
2019-03-30T01:10:44.178Z,12.18
2019-03-30T01:11:48.628Z,12.15
2019-03-30T01:12:52.807Z,12.18
2019-03-30T01:13:57.056Z,12.20
2019-03-30T01:15:01.299Z,12.18
2019-03-30T01:16:05.544Z,12.16
2019-03-30T01:17:10.003Z,12.14
2019-03-30T01:18:14.184Z,12.15
2019-03-30T01:19:21.415Z,12.15
2019-03-30T01:20:25.621Z,12.19
2019-03-30T01:21:29.803Z,12.20
2019-03-30T01:22:33.984Z,12.22
2019-03-30T01:23:38.162Z,12.22
2019-03-30T01:24:42.419Z,12.21
2019-03-30T01:25:47.177Z,12.21
2019-03-30T01:26:51.430Z,12.21
2019-03-30T01:27:55.618Z,12.20
2019-03-30T01:28:59.796Z,12.21
2019-03-30T01:30:04.647Z,12.21
2019-03-30T01:31:09.054Z,12.21
2019-03-30T01:32:13.199Z,12.19
2019-03-30T01:33:17.382Z,12.18
2019-03-30T01:34:21.566Z,12.18
2019-03-30T01:35:25.874Z,12.18
2019-03-30T01:36:30.248Z,12.18
2019-03-30T01:37:34.540Z,12.16
2019-03-30T01:38:38.731Z,12.13
2019-03-30T01:39:42.930Z,12.12
2019-03-30T01:40:47.311Z,12.13
2019-03-30T01:41:51.615Z,12.14
2019-03-30T01:42:55.818Z,12.15
2019-03-30T01:43:59.978Z,12.14
2019-03-30T01:45:09.299Z,12.14
2019-03-30T01:46:13.689Z,12.14
2019-03-30T01:47:17.955Z,12.13
2019-03-30T01:48:22.135Z,12.10
2019-03-30T01:49:26.331Z,12.08
2019-03-30T01:50:30.537Z,12.06
2019-03-30T01:51:34.763Z,12.04
2019-03-30T01:52:39.081Z,12.04
2019-03-30T01:53:43.232Z,12.03
2019-03-30T01:54:47.411Z,12.04
2019-03-30T01:55:51.689Z,12.00
2019-03-30T01:56:55.966Z,12.00
2019-03-30T01:58:00.466Z,11.96
2019-03-30T01:59:04.814Z,11.90
2019-03-30T02:00:10.335Z,11.89
2019-03-30T02:01:14.594Z,11.90
2019-03-30T02:02:18.868Z,11.89
2019-03-30T02:03:23.060Z,11.87
2019-03-30T02:04:27.277Z,11.86
2019-03-30T02:05:31.481Z,11.83
2019-03-30T02:06:35.667Z,11.78
2019-03-30T02:07:39.958Z,11.77
2019-03-30T02:08:44.205Z,11.72
2019-03-30T02:09:48.440Z,11.71
2019-03-30T02:10:53.023Z,11.67
2019-03-30T02:11:57.241Z,11.67
2019-03-30T02:13:01.422Z,11.69
2019-03-30T02:14:05.615Z,11.69
2019-03-30T02:15:09.898Z,11.68
2019-03-30T02:16:14.459Z,11.69
2019-03-30T02:17:20.145Z,11.64
2019-03-30T02:18:24.530Z,11.62
2019-03-30T02:19:28.707Z,11.63
2019-03-30T02:20:43.384Z,11.62
2019-03-30T02:21:47.968Z,11.62
2019-03-30T02:22:52.164Z,11.63
2019-03-30T02:23:56.384Z,11.64
2019-03-30T02:25:00.552Z,11.60
2019-03-30T02:26:04.810Z,11.56
2019-03-30T02:27:09.136Z,11.56
2019-03-30T02:28:13.315Z,11.55
2019-03-30T02:29:17.533Z,11.53
2019-03-30T02:30:21.685Z,11.47
2019-03-30T02:31:25.867Z,11.42
2019-03-30T02:32:30.144Z,11.38
2019-03-30T02:33:34.326Z,11.33
2019-03-30T02:34:38.555Z,11.29
2019-03-30T02:35:42.755Z,11.23
2019-03-30T02:36:46.966Z,11.23
2019-03-30T02:37:51.145Z,11.24
2019-03-30T02:38:55.397Z,11.27
2019-03-30T02:39:59.645Z,11.32
2019-03-30T02:41:04.603Z,11.34
2019-03-30T02:42:08.805Z,11.38
2019-03-30T02:43:13.033Z,11.40
2019-03-30T02:44:17.208Z,11.42
2019-03-30T02:45:21.391Z,11.44
2019-03-30T02:46:25.611Z,11.46
2019-03-30T02:47:29.794Z,11.48
2019-03-30T02:48:33.976Z,11.50
2019-03-30T02:49:38.156Z,11.50
2019-03-30T02:50:50.021Z,11.45
2019-03-30T02:51:48.442Z,11.44
2019-03-30T02:52:52.682Z,11.41
2019-03-30T02:53:57.079Z,11.38
2019-03-30T02:55:01.334Z,11.35
2019-03-30T02:56:05.636Z,11.30
2019-03-30T02:57:09.930Z,11.28
2019-03-30T02:58:14.100Z,11.26
2019-03-30T02:59:18.340Z,11.25
2019-03-30T03:00:22.519Z,11.25
2019-03-30T03:01:26.752Z,11.26
2019-03-30T03:02:30.935Z,11.18
2019-03-30T03:03:35.187Z,11.20
2019-03-30T03:04:39.413Z,11.21
2019-03-30T03:05:43.590Z,11.18
2019-03-30T03:06:47.816Z,11.18
2019-03-30T03:07:52.101Z,11.19
2019-03-30T03:08:57.969Z,11.20
2019-03-30T03:10:02.356Z,11.19
2019-03-30T03:11:06.538Z,11.20
2019-03-30T03:12:10.798Z,11.14
2019-03-30T03:13:15.220Z,11.14
2019-03-30T03:14:19.343Z,11.13
2019-03-30T03:15:23.692Z,11.10
2019-03-30T03:16:27.976Z,11.07
2019-03-30T03:17:32.177Z,11.07
2019-03-30T03:18:36.344Z,11.09
2019-03-30T03:19:40.525Z,11.11
2019-03-30T03:20:44.729Z,11.13
2019-03-30T03:21:48.946Z,11.15
2019-03-30T03:22:53.093Z,11.15
2019-03-30T03:23:57.440Z,11.14
2019-03-30T03:25:01.724Z,11.11
2019-03-30T03:26:06.025Z,11.10
2019-03-30T03:27:10.203Z,11.06
2019-03-30T03:28:14.452Z,11.00
2019-03-30T03:29:18.629Z,11.00
2019-03-30T03:30:22.823Z,10.98
2019-03-30T03:31:27.069Z,10.96
2019-03-30T03:32:31.320Z,10.98
2019-03-30T03:33:35.593Z,10.90
2019-03-30T03:34:39.799Z,10.79
2019-03-30T03:35:45.646Z,10.71
2019-03-30T03:36:49.823Z,10.69
2019-03-30T03:37:54.009Z,10.57
2019-03-30T03:38:58.216Z,10.47
2019-03-30T03:40:02.398Z,10.47
2019-03-30T03:41:06.668Z,10.50
2019-03-30T03:42:10.969Z,10.50
2019-03-30T03:43:15.172Z,10.54
2019-03-30T03:44:19.362Z,10.59
2019-03-30T03:45:23.563Z,10.55
2019-03-30T03:46:27.854Z,10.55
2019-03-30T03:47:32.031Z,10.57
2019-03-30T03:48:36.334Z,10.57
2019-03-30T03:49:40.497Z,10.55
2019-03-30T03:50:45.752Z,10.42
2019-03-30T03:51:50.036Z,10.40
2019-03-30T03:52:54.226Z,10.42
2019-03-30T03:53:58.427Z,10.42
2019-03-30T03:55:02.783Z,10.31
2019-03-30T03:56:06.963Z,10.34
2019-03-30T03:57:11.224Z,10.36
2019-03-30T03:58:15.972Z,10.35
2019-03-30T03:59:20.189Z,10.38
2019-03-30T04:00:24.441Z,10.42
2019-03-30T04:01:28.693Z,10.43
2019-03-30T04:02:35.904Z,10.44
2019-03-30T04:03:40.119Z,10.45
2019-03-30T04:04:47.678Z,10.34
2019-03-30T04:05:51.276Z,10.23
2019-03-30T04:06:57.086Z,10.14
2019-03-30T04:08:01.508Z,10.14
2019-03-30T04:09:06.478Z,10.12
2019-03-30T04:10:10.646Z,10.14
2019-03-30T04:11:14.877Z,10.18
2019-03-30T04:12:19.332Z,10.19
2019-03-30T04:13:23.595Z,10.27
2019-03-30T04:14:27.901Z,10.29
2019-03-30T04:15:32.359Z,10.30
2019-03-30T04:16:36.552Z,10.33
2019-03-30T04:17:41.216Z,10.35
2019-03-30T04:18:48.029Z,10.37
2019-03-30T04:19:51.355Z,10.38
2019-03-30T04:20:55.607Z,10.39
2019-03-30T04:21:59.784Z,10.41
2019-03-30T04:23:04.068Z,10.42
2019-03-30T04:24:08.251Z,10.34
2019-03-30T04:25:14.070Z,10.41
2019-03-30T04:26:18.275Z,10.40
2019-03-30T04:27:22.476Z,10.42
2019-03-30T04:28:26.768Z,10.42
2019-03-30T04:29:30.947Z,10.43
2019-03-30T04:30:35.138Z,10.44
2019-03-30T04:31:40.456Z,10.45
2019-03-30T04:32:44.648Z,10.45
2019-03-30T04:33:48.853Z,10.41
2019-03-30T04:34:53.032Z,10.33
2019-03-30T04:35:57.460Z,10.25
2019-03-30T04:37:01.640Z,10.12
2019-03-30T04:38:05.822Z,10.08
2019-03-30T04:39:10.079Z,10.05
2019-03-30T04:40:14.262Z,10.10
2019-03-30T04:41:18.520Z,10.14
2019-03-30T04:42:22.702Z,10.19
2019-03-30T04:43:26.939Z,10.10
2019-03-30T04:44:31.306Z,9.96
2019-03-30T04:45:37.091Z,9.94
2019-03-30T04:46:41.275Z,9.94
2019-03-30T04:47:45.442Z,9.93
2019-03-30T04:48:49.644Z,9.96
2019-03-30T04:49:53.860Z,10.01
2019-03-30T04:50:59.007Z,9.96
2019-03-30T04:52:03.218Z,9.91
2019-03-30T04:53:07.389Z,9.81
2019-03-30T04:54:11.633Z,9.70
2019-03-30T04:55:17.709Z,9.61
2019-03-30T04:56:21.852Z,9.38
2019-03-30T04:57:26.055Z,9.22
2019-03-30T04:58:30.228Z,9.23
2019-03-30T04:59:34.411Z,9.25
2019-03-30T05:00:39.539Z,9.33
2019-03-30T05:01:43.773Z,9.40
2019-03-30T05:02:47.986Z,9.47
2019-03-30T05:03:52.184Z,9.54
2019-03-30T05:04:56.361Z,9.56
2019-03-30T05:06:00.970Z,9.65
2019-03-30T05:07:05.153Z,9.70
2019-03-30T05:08:09.329Z,9.76
2019-03-30T05:09:13.505Z,9.77
2019-03-30T05:10:17.755Z,9.78
2019-03-30T05:11:22.030Z,9.64
2019-03-30T05:12:26.352Z,9.60
2019-03-30T05:13:30.586Z,9.47
2019-03-30T05:14:34.770Z,9.47
2019-03-30T05:15:38.985Z,9.38
2019-03-30T05:16:47.053Z,9.44
2019-03-30T05:17:52.299Z,9.55
2019-03-30T05:18:56.565Z,9.66
2019-03-30T05:20:00.774Z,9.72
2019-03-30T05:21:04.994Z,9.80
2019-03-30T05:22:13.537Z,9.86
2019-03-30T05:23:15.154Z,9.89
2019-03-30T05:24:19.803Z,9.93
2019-03-30T05:25:24.012Z,9.94
2019-03-30T05:26:28.176Z,9.98
2019-03-30T05:27:32.359Z,10.02
2019-03-30T05:28:36.572Z,10.02
2019-03-30T05:29:40.782Z,9.95
2019-03-30T05:30:45.033Z,9.97
2019-03-30T05:31:49.211Z,9.88
2019-03-30T05:33:05.027Z,9.91
2019-03-30T05:33:59.283Z,9.95
2019-03-30T05:35:06.126Z,10.00
2019-03-30T05:36:10.370Z,10.03
2019-03-30T05:37:14.551Z,10.04
2019-03-30T05:38:18.730Z,10.07
2019-03-30T05:39:23.002Z,10.11
2019-03-30T05:40:27.290Z,10.15
2019-03-30T05:41:31.470Z,10.18
2019-03-30T05:42:35.686Z,10.20
2019-03-30T05:43:39.957Z,10.22
2019-03-30T05:44:44.138Z,10.19
2019-03-30T05:45:48.337Z,10.21
2019-03-30T05:46:52.523Z,10.22
2019-03-30T05:47:56.784Z,10.24
2019-03-30T05:49:00.966Z,10.25
2019-03-30T05:50:06.420Z,10.27
2019-03-30T05:51:10.600Z,10.31
2019-03-30T05:52:25.787Z,10.33
2019-03-30T05:53:20.716Z,10.33
2019-03-30T05:54:24.987Z,10.33
2019-03-30T05:55:29.146Z,10.30
2019-03-30T05:56:33.351Z,10.25
2019-03-30T05:57:37.588Z,10.19
2019-03-30T05:58:41.878Z,10.13
2019-03-30T05:59:46.058Z,10.09
2019-03-30T06:00:50.260Z,10.14
2019-03-30T06:01:54.466Z,10.12
2019-03-30T06:02:58.771Z,10.20
2019-03-30T06:04:03.061Z,10.26
2019-03-30T06:05:07.335Z,10.27
2019-03-30T06:06:11.531Z,10.28
2019-03-30T06:07:15.821Z,10.34
2019-03-30T06:08:20.187Z,10.40
2019-03-30T06:09:24.440Z,10.31
2019-03-30T06:10:28.579Z,10.22
2019-03-30T06:11:32.800Z,10.03
2019-03-30T06:12:36.943Z,9.96
2019-03-30T06:13:41.655Z,10.00
2019-03-30T06:14:45.854Z,10.06
2019-03-30T06:15:50.065Z,10.13
2019-03-30T06:16:54.252Z,10.20
2019-03-30T06:17:58.441Z,10.28
2019-03-30T06:19:02.664Z,10.34
2019-03-30T06:20:07.017Z,10.42
2019-03-30T06:21:12.315Z,10.49
2019-03-30T06:22:18.254Z,10.56
2019-03-30T06:23:22.543Z,10.64
2019-03-30T06:24:28.807Z,10.70
2019-03-30T06:25:33.253Z,10.77
2019-03-30T06:26:37.433Z,10.82
2019-03-30T06:27:41.687Z,10.90
2019-03-30T06:28:45.879Z,10.98
2019-03-30T06:30:11.650Z,11.07
2019-03-30T06:31:15.821Z,11.13
2019-03-30T06:32:20.075Z,11.21
2019-03-30T06:33:24.300Z,11.25
2019-03-30T06:34:28.450Z,11.32
2019-03-30T06:35:32.666Z,11.36
2019-03-30T06:36:36.847Z,11.41
2019-03-30T06:37:41.058Z,11.45
2019-03-30T06:38:45.243Z,11.53
2019-03-30T06:39:49.418Z,11.58
2019-03-30T06:40:53.597Z,11.64
2019-03-30T06:41:57.903Z,11.72
2019-03-30T06:43:02.100Z,11.76
2019-03-30T06:44:06.335Z,11.82
2019-03-30T06:45:12.220Z,11.88
2019-03-30T06:46:16.518Z,11.93
2019-03-30T06:47:20.797Z,11.98
2019-03-30T06:48:25.040Z,12.06
2019-03-30T06:49:29.373Z,12.14
2019-03-30T06:50:33.771Z,12.20
2019-03-30T06:51:37.977Z,12.28
2019-03-30T06:52:56.383Z,12.36
2019-03-30T06:53:48.133Z,12.41
2019-03-30T06:54:52.497Z,12.48
2019-03-30T06:55:56.713Z,12.54
2019-03-30T06:57:00.904Z,12.63
2019-03-30T06:58:05.087Z,12.71
2019-03-30T06:59:09.266Z,12.77
2019-03-30T07:00:15.497Z,12.83
2019-03-30T07:01:19.674Z,12.91
2019-03-30T07:02:23.856Z,12.99
2019-03-30T07:03:28.034Z,13.05
2019-03-30T07:04:32.314Z,13.10
2019-03-30T07:05:38.419Z,13.13
2019-03-30T07:06:42.747Z,13.16
2019-03-30T07:07:46.926Z,13.21
2019-03-30T07:08:51.158Z,13.21
2019-03-30T07:09:55.437Z,13.03
2019-03-30T07:10:59.628Z,12.85
2019-03-30T07:12:04.673Z,12.63
2019-03-30T07:13:08.892Z,12.61
2019-03-30T07:14:13.306Z,12.63
2019-03-30T07:15:17.486Z,12.57
2019-03-30T07:16:21.936Z,12.64
2019-03-30T07:17:26.115Z,12.72
2019-03-30T07:18:30.299Z,12.82
2019-03-30T07:19:34.552Z,12.86
2019-03-30T07:20:38.735Z,12.89
2019-03-30T07:21:42.988Z,12.90
2019-03-30T07:22:47.177Z,12.84
2019-03-30T07:23:51.425Z,12.91
2019-03-30T07:24:55.709Z,12.99
2019-03-30T07:25:59.959Z,13.12
2019-03-30T07:27:04.738Z,13.22
2019-03-30T07:28:08.911Z,13.29
2019-03-30T07:29:13.086Z,13.37
2019-03-30T07:30:17.324Z,13.41
2019-03-30T07:31:21.642Z,13.36
2019-03-30T07:32:25.822Z,13.27
2019-03-30T07:33:30.075Z,13.40
2019-03-30T07:34:34.258Z,13.47
2019-03-30T07:35:38.470Z,13.45
2019-03-30T07:36:42.649Z,13.48
2019-03-30T07:37:46.831Z,13.52
2019-03-30T07:38:51.080Z,13.50
2019-03-30T07:39:55.326Z,13.47
2019-03-30T07:40:59.668Z,13.45
2019-03-30T07:42:04.423Z,13.48
2019-03-30T07:43:08.606Z,13.47
2019-03-30T07:44:12.906Z,13.54
2019-03-30T07:45:17.111Z,13.58
2019-03-30T07:46:21.382Z,13.67
2019-03-30T07:47:25.558Z,13.80
2019-03-30T07:48:29.769Z,13.90
2019-03-30T07:49:34.017Z,13.90
2019-03-30T07:50:38.274Z,13.87
2019-03-30T07:51:42.470Z,13.87
2019-03-30T07:52:47.067Z,13.89
2019-03-30T07:53:51.323Z,13.96
2019-03-30T07:54:55.510Z,14.05
2019-03-30T07:56:08.153Z,14.23
2019-03-30T07:57:16.513Z,14.36
2019-03-30T07:58:12.499Z,14.54
2019-03-30T07:59:16.721Z,14.65
2019-03-30T08:00:20.906Z,14.60
2019-03-30T08:01:25.222Z,14.48
2019-03-30T08:02:29.475Z,14.40
2019-03-30T08:03:33.770Z,14.50
2019-03-30T08:04:38.062Z,14.39
2019-03-30T08:05:45.172Z,14.42
2019-03-30T08:06:49.356Z,14.25
2019-03-30T08:07:53.537Z,14.42
2019-03-30T08:08:57.854Z,14.54
2019-03-30T08:10:02.133Z,14.69
2019-03-30T08:11:06.642Z,14.76
2019-03-30T08:12:10.848Z,14.89
2019-03-30T08:13:15.026Z,14.96
2019-03-30T08:14:19.283Z,14.93
2019-03-30T08:15:23.554Z,14.91
2019-03-30T08:16:27.848Z,14.88
2019-03-30T08:17:32.027Z,14.80
2019-03-30T08:18:36.280Z,14.81
2019-03-30T08:19:40.467Z,15.04
2019-03-30T08:20:44.655Z,14.99
2019-03-30T08:21:48.904Z,15.21
2019-03-30T08:22:53.096Z,15.29
2019-03-30T08:23:58.961Z,15.08
2019-03-30T08:25:04.049Z,14.97
2019-03-30T08:26:08.240Z,14.83
2019-03-30T08:27:13.119Z,15.07
2019-03-30T08:28:17.299Z,15.16
2019-03-30T08:29:21.577Z,15.22
2019-03-30T08:30:25.830Z,15.36
2019-03-30T08:31:30.079Z,15.49
2019-03-30T08:32:34.330Z,15.42
2019-03-30T08:33:38.528Z,15.56
2019-03-30T08:34:42.884Z,15.65
2019-03-30T08:35:47.139Z,15.76
2019-03-30T08:36:51.391Z,15.76
2019-03-30T08:37:56.654Z,15.77
2019-03-30T08:39:00.803Z,15.90
2019-03-30T08:40:06.454Z,15.93
2019-03-30T08:41:10.703Z,16.09
2019-03-30T08:42:15.058Z,16.18
2019-03-30T08:43:19.342Z,16.27
2019-03-30T08:44:23.809Z,16.30
2019-03-30T08:45:28.088Z,16.34
2019-03-30T08:46:32.270Z,16.39
2019-03-30T08:47:37.593Z,16.54
2019-03-30T08:48:41.828Z,16.73
2019-03-30T08:49:46.018Z,16.82
2019-03-30T08:50:50.552Z,16.86
2019-03-30T08:51:54.751Z,17.05
2019-03-30T08:52:58.931Z,17.10
2019-03-30T08:54:03.432Z,17.03
2019-03-30T08:55:08.293Z,16.99
2019-03-30T08:56:14.217Z,17.20
2019-03-30T08:57:18.430Z,17.42
2019-03-30T08:58:23.042Z,17.47
2019-03-30T08:59:27.507Z,17.58
2019-03-30T09:00:40.938Z,17.69
2019-03-30T09:01:45.609Z,17.64
2019-03-30T09:02:49.792Z,17.75
2019-03-30T09:03:53.980Z,17.67
2019-03-30T09:04:59.708Z,17.58
2019-03-30T09:06:04.787Z,17.67
2019-03-30T09:07:09.026Z,17.83
2019-03-30T09:08:13.202Z,18.03
2019-03-30T09:09:17.388Z,18.18
2019-03-30T09:10:21.592Z,18.17
2019-03-30T09:11:25.822Z,18.01
2019-03-30T09:12:30.224Z,17.93
2019-03-30T09:13:34.402Z,17.80
2019-03-30T09:14:39.475Z,17.97
2019-03-30T09:15:43.969Z,18.19
2019-03-30T09:16:48.381Z,18.41
2019-03-30T09:17:52.586Z,18.61
2019-03-30T09:18:56.959Z,18.90
2019-03-30T09:20:01.142Z,19.20
2019-03-30T09:21:05.654Z,19.43
2019-03-30T09:22:09.911Z,19.79
2019-03-30T09:23:15.101Z,20.00
2019-03-30T09:24:19.277Z,20.37
2019-03-30T09:25:23.459Z,20.71
2019-03-30T09:26:27.718Z,20.88
2019-03-30T09:27:31.960Z,21.02
2019-03-30T09:28:36.201Z,21.26
2019-03-30T09:29:40.613Z,21.54
2019-03-30T09:30:44.791Z,21.80
2019-03-30T09:31:48.973Z,22.03
2019-03-30T09:32:53.152Z,22.31
2019-03-30T09:33:57.513Z,22.61
2019-03-30T09:35:01.693Z,22.81
2019-03-30T09:36:05.942Z,23.01
2019-03-30T09:37:10.123Z,23.23
2019-03-30T09:38:14.960Z,23.25
2019-03-30T09:39:19.328Z,23.32
2019-03-30T09:40:23.507Z,23.53
2019-03-30T09:41:27.758Z,23.69
2019-03-30T09:42:31.939Z,23.77
2019-03-30T09:43:37.652Z,23.97
2019-03-30T09:44:42.094Z,24.18
2019-03-30T09:45:46.341Z,24.31
2019-03-30T09:46:50.597Z,24.26
2019-03-30T09:47:54.806Z,24.20
2019-03-30T09:48:58.988Z,24.57
2019-03-30T09:50:04.640Z,24.78
2019-03-30T09:51:08.904Z,25.14
2019-03-30T09:52:13.173Z,25.28
2019-03-30T09:53:17.358Z,25.30
2019-03-30T09:54:24.012Z,25.34
2019-03-30T09:55:27.696Z,25.51
2019-03-30T09:56:31.977Z,25.60
2019-03-30T09:57:36.158Z,25.89
2019-03-30T09:58:40.410Z,26.11
2019-03-30T09:59:44.662Z,26.08
2019-03-30T10:00:50.476Z,26.28
2019-03-30T10:01:55.658Z,26.59
2019-03-30T10:02:59.842Z,26.85
2019-03-30T10:04:04.948Z,26.99
2019-03-30T10:05:09.125Z,27.14
2019-03-30T10:06:14.942Z,27.26
2019-03-30T10:07:20.114Z,27.59
2019-03-30T10:08:24.603Z,27.74
2019-03-30T10:09:28.780Z,27.95
2019-03-30T10:10:33.011Z,28.24
2019-03-30T10:11:37.191Z,28.23
2019-03-30T10:12:41.446Z,28.26
2019-03-30T10:13:45.722Z,28.58
2019-03-30T10:14:49.914Z,28.75
2019-03-30T10:15:54.143Z,28.34
2019-03-30T10:16:58.366Z,28.10
2019-03-30T10:18:02.583Z,28.15
2019-03-30T10:19:06.835Z,28.36
2019-03-30T10:20:11.089Z,28.60
2019-03-30T10:21:15.269Z,28.78
2019-03-30T10:22:19.450Z,29.05
2019-03-30T10:23:23.667Z,29.23
2019-03-30T10:24:37.978Z,29.39
2019-03-30T10:25:33.826Z,29.48
2019-03-30T10:26:38.005Z,29.47
2019-03-30T10:27:42.194Z,29.46
2019-03-30T10:28:47.185Z,29.57
2019-03-30T10:29:51.474Z,29.76
2019-03-30T10:30:56.718Z,29.42
2019-03-30T10:32:00.920Z,29.35
2019-03-30T10:33:05.089Z,28.70
2019-03-30T10:34:11.052Z,28.69
2019-03-30T10:35:16.154Z,28.84
2019-03-30T10:36:20.366Z,28.72
2019-03-30T10:37:24.551Z,29.06
2019-03-30T10:38:28.800Z,29.27
2019-03-30T10:39:33.055Z,29.40
2019-03-30T10:40:37.617Z,29.46
2019-03-30T10:41:41.944Z,29.30
2019-03-30T10:42:46.120Z,29.25
2019-03-30T10:43:50.312Z,29.19
2019-03-30T10:44:54.567Z,28.86
2019-03-30T10:45:59.103Z,29.01
2019-03-30T10:47:03.299Z,29.07
2019-03-30T10:48:07.554Z,29.04
2019-03-30T10:49:11.803Z,28.96
2019-03-30T10:50:15.986Z,29.22
2019-03-30T10:51:20.281Z,29.50
2019-03-30T10:52:24.466Z,29.03
2019-03-30T10:53:28.740Z,28.50
2019-03-30T10:54:33.035Z,28.51
2019-03-30T10:55:37.523Z,28.21
2019-03-30T10:56:41.862Z,28.03
2019-03-30T10:57:46.043Z,28.12
2019-03-30T10:58:50.246Z,28.44
2019-03-30T10:59:56.119Z,28.74
2019-03-30T11:01:00.317Z,28.24
2019-03-30T11:02:04.666Z,28.15
2019-03-30T11:03:09.001Z,28.13
2019-03-30T11:04:13.174Z,27.89
2019-03-30T11:05:17.440Z,27.68
2019-03-30T11:06:21.623Z,27.66
2019-03-30T11:07:26.274Z,27.90
2019-03-30T11:08:30.524Z,27.78
2019-03-30T11:09:34.798Z,27.90
2019-03-30T11:10:39.026Z,28.00
2019-03-30T11:11:43.275Z,27.82
2019-03-30T11:12:47.534Z,28.07
2019-03-30T11:13:51.716Z,28.26
2019-03-30T11:14:56.002Z,28.49
2019-03-30T11:16:00.180Z,28.56
2019-03-30T11:17:04.499Z,28.64
2019-03-30T11:18:08.729Z,28.69
2019-03-30T11:19:12.978Z,28.79
2019-03-30T11:20:17.203Z,28.92
2019-03-30T11:21:21.380Z,29.00
2019-03-30T11:22:25.565Z,28.63
2019-03-30T11:23:29.839Z,28.09
2019-03-30T11:24:34.212Z,28.05
2019-03-30T11:25:38.442Z,28.16
2019-03-30T11:26:42.637Z,27.89
2019-03-30T11:27:46.813Z,27.56
2019-03-30T11:28:52.066Z,27.55
2019-03-30T11:29:56.498Z,27.52
2019-03-30T11:31:00.674Z,27.27
2019-03-30T11:32:04.871Z,27.19
2019-03-30T11:33:09.130Z,27.00
2019-03-30T11:34:13.309Z,26.89
2019-03-30T11:35:17.713Z,26.86
2019-03-30T11:36:21.898Z,26.44
2019-03-30T11:37:26.080Z,26.44
2019-03-30T11:38:30.258Z,26.13
2019-03-30T11:39:34.509Z,25.93
2019-03-30T11:40:38.991Z,25.64
2019-03-30T11:41:43.170Z,25.40
2019-03-30T11:42:47.416Z,25.36
2019-03-30T11:43:51.597Z,25.30
2019-03-30T11:44:55.829Z,25.30
2019-03-30T11:46:00.105Z,25.18
2019-03-30T11:47:07.703Z,25.03
2019-03-30T11:48:11.898Z,24.90
2019-03-30T11:49:16.100Z,24.83
2019-03-30T11:50:20.262Z,24.71
2019-03-30T11:51:24.710Z,24.71
2019-03-30T11:52:30.366Z,24.73
2019-03-30T11:53:34.655Z,24.74
2019-03-30T11:54:38.883Z,24.76
2019-03-30T11:55:43.066Z,24.68
2019-03-30T11:56:47.630Z,24.59
2019-03-30T11:57:51.812Z,24.64
2019-03-30T11:58:56.043Z,24.67
2019-03-30T12:00:01.298Z,24.68
2019-03-30T12:01:06.724Z,24.69
2019-03-30T12:02:11.174Z,24.72
2019-03-30T12:03:15.350Z,24.77
2019-03-30T12:04:19.532Z,24.76
2019-03-30T12:05:23.752Z,24.48
2019-03-30T12:06:27.999Z,24.53
2019-03-30T12:07:32.657Z,24.37
2019-03-30T12:08:36.832Z,24.23
2019-03-30T12:09:42.706Z,24.15
2019-03-30T12:10:48.393Z,24.26
2019-03-30T12:11:52.577Z,24.35
2019-03-30T12:12:56.855Z,24.34
2019-03-30T12:14:01.035Z,24.29
2019-03-30T12:15:08.753Z,24.17
2019-03-30T12:16:14.632Z,24.13
2019-03-30T12:17:18.829Z,24.05
2019-03-30T12:18:26.274Z,23.84
2019-03-30T12:19:30.450Z,23.74
2019-03-30T12:20:34.645Z,23.92
2019-03-30T12:21:39.014Z,24.00
2019-03-30T12:22:43.275Z,24.21
2019-03-30T12:23:47.768Z,24.38
2019-03-30T12:24:51.948Z,24.23
2019-03-30T12:25:56.190Z,24.17
2019-03-30T12:27:00.369Z,24.10
2019-03-30T12:28:04.624Z,24.22
2019-03-30T12:29:08.882Z,24.36
2019-03-30T12:30:13.858Z,24.47
2019-03-30T12:31:18.210Z,24.53
2019-03-30T12:32:22.399Z,24.53
2019-03-30T12:33:26.726Z,24.44
2019-03-30T12:34:30.932Z,24.34
2019-03-30T12:35:35.376Z,24.33
2019-03-30T12:36:39.629Z,24.51
2019-03-30T12:37:43.828Z,24.59
2019-03-30T12:38:47.985Z,24.59
2019-03-30T12:39:52.189Z,24.64
2019-03-30T12:40:56.532Z,24.52
2019-03-30T12:42:00.821Z,24.62
2019-03-30T12:43:05.057Z,24.78
2019-03-30T12:44:09.277Z,24.94
2019-03-30T12:45:13.495Z,24.88
2019-03-30T12:46:20.628Z,24.86
2019-03-30T12:47:24.808Z,24.91
2019-03-30T12:48:29.059Z,24.93
2019-03-30T12:49:33.330Z,24.88
2019-03-30T12:50:37.529Z,24.97
2019-03-30T12:51:41.776Z,25.11
2019-03-30T12:52:45.958Z,25.07
2019-03-30T12:53:50.835Z,25.09
2019-03-30T12:54:56.208Z,25.01
2019-03-30T12:56:00.407Z,24.83
2019-03-30T12:57:04.821Z,24.76
2019-03-30T12:58:09.076Z,24.65
2019-03-30T12:59:13.319Z,24.50
2019-03-30T13:00:18.299Z,24.29
2019-03-30T13:01:22.517Z,24.17
2019-03-30T13:02:26.693Z,24.24
2019-03-30T13:03:30.868Z,24.13
2019-03-30T13:04:35.117Z,24.06
2019-03-30T13:05:39.382Z,24.11
2019-03-30T13:06:43.661Z,24.16
2019-03-30T13:07:47.904Z,24.10
2019-03-30T13:08:52.093Z,23.99
2019-03-30T13:09:56.417Z,24.27
2019-03-30T13:11:00.589Z,24.35
2019-03-30T13:12:05.071Z,24.35
2019-03-30T13:13:10.217Z,24.32
2019-03-30T13:14:14.397Z,24.23
2019-03-30T13:15:18.573Z,24.12
2019-03-30T13:16:26.200Z,24.08
2019-03-30T13:17:29.804Z,23.96
2019-03-30T13:18:34.105Z,23.99
2019-03-30T13:19:38.282Z,23.89
2019-03-30T13:20:42.456Z,23.76
2019-03-30T13:21:52.896Z,23.82
2019-03-30T13:22:52.505Z,23.94
2019-03-30T13:23:56.704Z,23.99
2019-03-30T13:25:00.881Z,24.16
2019-03-30T13:26:06.741Z,24.30
2019-03-30T13:27:19.817Z,24.28
2019-03-30T13:28:19.577Z,24.27
2019-03-30T13:29:26.688Z,24.00
2019-03-30T13:30:34.722Z,23.89
2019-03-30T13:31:41.662Z,23.94
2019-03-30T13:32:45.920Z,24.09
2019-03-30T13:33:50.190Z,24.19
2019-03-30T13:34:54.375Z,24.29
2019-03-30T13:35:58.636Z,24.50
2019-03-30T13:37:16.869Z,24.48
2019-03-30T13:38:21.050Z,24.44
2019-03-30T13:39:25.264Z,24.33
2019-03-30T13:40:30.473Z,24.32
2019-03-30T13:41:34.822Z,24.26
2019-03-30T13:42:39.020Z,24.24
2019-03-30T13:43:43.205Z,24.22
2019-03-30T13:44:47.388Z,24.15
2019-03-30T13:45:51.569Z,24.23
2019-03-30T13:46:55.827Z,24.45
2019-03-30T13:48:00.276Z,24.53
2019-03-30T13:49:04.870Z,24.51
2019-03-30T13:50:09.461Z,24.76
2019-03-30T13:51:14.658Z,24.70
2019-03-30T13:52:18.871Z,24.69
2019-03-30T13:53:23.044Z,24.63